Washington National Airport Airport (DCA)

 

Airport Diagram
Current Weather/Forecast (VFR Conditions)
METAR KDCA 251752Z 08011KT 10SM BKN045 BKN070 26/14 A3019 RMK AO2 SLP222 T02610139 10261 20200 58012
TAF KDCA 251435Z 2515/2618 05010G16KT P6SM SCT050 FM252300 07008KT P6SM FEW040 SCT250 FM260300 03008KT P6SM BKN200

All Charts
General
Chart Name Download
AIRPORT DIAGRAM
TAKEOFF MINIMUMS
ALTERNATE MINIMUMS
HOT SPOT

Departures
Chart Name Download
BOOCK THREE (RNAV)
BOOCK THREE (RNAV), CONT.1
CLTCH TWO (RNAV)
CLTCH TWO (RNAV), CONT.1
DOCTR FOUR (RNAV)
DOCTR FOUR (RNAV), CONT.1
HORTO THREE (RNAV)
HORTO THREE (RNAV), CONT.1
JDUBB TWO (RNAV)
JDUBB TWO (RNAV), CONT.1
NATIONAL SEVEN
NATIONAL SEVEN, CONT.1
REBLL FOUR (RNAV)
REBLL FOUR (RNAV), CONT.1
SCRAM FOUR (RNAV)
SCRAM FOUR (RNAV), CONT.1
SOOKI FOUR (RNAV)
SOOKI FOUR (RNAV), CONT.1
WYNGS FOUR (RNAV)
WYNGS FOUR (RNAV), CONT.1

Arrivals
Chart Name Download
CAPSS THREE (RNAV)
CLIPR TWO (RNAV)
DEALE THREE (RNAV)
FRDMM FIVE (RNAV)
FRDMM FIVE (RNAV), CONT.1
IRONS SEVEN
NUMMY THREE
SKILS FOUR (RNAV)
TIKEE THREE (RNAV)
TRUPS FOUR (RNAV)
TRUPS FOUR (RNAV), CONT.1

Approaches
Chart Name Download
ILS OR LOC RWY 01
ILS RWY 01 (SA CAT I)
ILS RWY 01 (CAT II)
RNAV (RNP) RWY 01
RNAV (RNP) RWY 19
RNAV (GPS) RWY 15
RNAV (GPS) RWY 33
LDA Y RWY 19
LDA Z RWY 19
COPTER ILS OR LOC/DME RWY 01
MOUNT VERNON VISUAL RWY 01
RIVER VISUAL RWY 19


Inbound Traffic (Arrivals)

No inbound traffic.


Outbound Traffic (Departures)

No outbound traffic.